createdAt,value
2023-03-16T00:00:02.078Z,99670.13
2023-03-16T00:02:31.517Z,99644.88
2023-03-16T00:04:58.569Z,99661.66
2023-03-16T00:07:25.611Z,99624.31
2023-03-16T00:09:52.585Z,99631.44
2023-03-16T00:12:19.707Z,99622.66
2023-03-16T00:14:48.709Z,99635.84
2023-03-16T00:17:20.773Z,99638.19
2023-03-16T00:19:55.232Z,99629.78
2023-03-16T00:22:25.176Z,99634.00
2023-03-16T00:24:52.999Z,99626.16
2023-03-16T00:27:23.039Z,99618.41
2023-03-16T00:29:56.734Z,99615.09
2023-03-16T00:32:30.413Z,99619.03
2023-03-16T00:34:57.845Z,99627.75
2023-03-16T00:37:26.878Z,99619.78
2023-03-16T00:39:58.082Z,99620.75
2023-03-16T00:42:28.491Z,99624.91
2023-03-16T00:44:57.469Z,99651.84
2023-03-16T00:47:26.217Z,99638.44
2023-03-16T00:49:53.368Z,99627.72
2023-03-16T00:52:20.698Z,99636.47
2023-03-16T00:54:48.355Z,99641.28
2023-03-16T00:57:21.776Z,99643.66
2023-03-16T00:59:49.288Z,99642.78
2023-03-16T01:02:19.458Z,99621.44
2023-03-16T01:04:46.497Z,99645.06
2023-03-16T01:07:14.959Z,99631.31
2023-03-16T01:09:43.030Z,99648.84
2023-03-16T01:12:14.935Z,99621.13
2023-03-16T01:14:42.293Z,99635.13
2023-03-16T01:17:10.135Z,99653.63
2023-03-16T01:19:38.009Z,99643.34
2023-03-16T01:22:09.972Z,99629.44
2023-03-16T01:24:39.238Z,99640.97
2023-03-16T01:27:07.868Z,99637.69
2023-03-16T01:29:35.870Z,99630.78
2023-03-16T01:32:04.862Z,99641.19
2023-03-16T01:34:32.904Z,99639.28
2023-03-16T01:37:01.062Z,99638.34
2023-03-16T01:39:51.245Z,99646.66
2023-03-16T01:42:18.492Z,99624.03
2023-03-16T01:44:56.242Z,99651.16
2023-03-16T01:47:30.004Z,99632.75
2023-03-16T01:49:57.778Z,99643.31
2023-03-16T01:52:36.178Z,99639.13
2023-03-16T01:55:08.877Z,99646.72
2023-03-16T01:57:42.761Z,99644.75
2023-03-16T02:00:23.927Z,99640.16
2023-03-16T02:03:17.733Z,99643.34
2023-03-16T02:06:23.432Z,99650.84
2023-03-16T02:08:56.856Z,99644.88
2023-03-16T02:11:24.319Z,99632.66
2023-03-16T02:14:08.304Z,99645.03
2023-03-16T02:16:35.416Z,99651.81
2023-03-16T02:19:03.175Z,99655.97
2023-03-16T02:21:49.174Z,99659.53
2023-03-16T02:24:16.213Z,99663.78
2023-03-16T02:26:57.785Z,99646.38
2023-03-16T02:29:53.871Z,99651.63
2023-03-16T02:32:23.282Z,99646.22
2023-03-16T02:34:50.604Z,99619.94
2023-03-16T02:37:17.830Z,99642.75
2023-03-16T02:39:44.910Z,99641.72
2023-03-16T02:42:22.077Z,99643.72
2023-03-16T02:44:57.393Z,99648.31
2023-03-16T02:47:39.064Z,99645.88
2023-03-16T02:50:07.078Z,99647.44
2023-03-16T02:52:36.443Z,99632.06
2023-03-16T02:55:05.671Z,99606.91
2023-03-16T02:57:32.961Z,99609.00
2023-03-16T03:00:13.481Z,99637.56
2023-03-16T03:02:42.065Z,99634.00
2023-03-16T03:05:09.314Z,99627.06
2023-03-16T03:07:37.401Z,99628.16
2023-03-16T03:10:07.521Z,99639.72
2023-03-16T03:12:35.041Z,99613.53
2023-03-16T03:15:06.443Z,99631.25
2023-03-16T03:17:43.168Z,99633.13
2023-03-16T03:20:18.471Z,99627.91
2023-03-16T03:22:50.140Z,99621.78
2023-03-16T03:25:18.677Z,99612.44
2023-03-16T03:27:47.252Z,99619.91
2023-03-16T03:30:19.985Z,99598.13
2023-03-16T03:32:49.206Z,99618.16
2023-03-16T03:35:18.968Z,99608.63
2023-03-16T03:37:46.020Z,99589.34
2023-03-16T03:40:16.638Z,99610.00
2023-03-16T03:42:46.914Z,99594.31
2023-03-16T03:45:15.065Z,99591.94
2023-03-16T03:47:43.169Z,99594.81
2023-03-16T03:50:14.174Z,99586.09
2023-03-16T03:52:59.899Z,99593.94
2023-03-16T03:55:30.125Z,99570.44
2023-03-16T03:57:57.244Z,99594.72
2023-03-16T04:00:24.462Z,99607.75
2023-03-16T04:02:51.748Z,99611.09
2023-03-16T04:05:29.024Z,99616.25
2023-03-16T04:07:57.681Z,99606.91
2023-03-16T04:10:26.565Z,99604.06
2023-03-16T04:12:54.103Z,99604.88
2023-03-16T04:15:22.428Z,99619.78
2023-03-16T04:18:06.414Z,99608.38
2023-03-16T04:20:34.955Z,99620.00
2023-03-16T04:23:02.200Z,99613.16
2023-03-16T04:25:30.812Z,99602.44
2023-03-16T04:27:59.059Z,99618.38
2023-03-16T04:30:31.121Z,99625.09
2023-03-16T04:33:10.302Z,99606.59
2023-03-16T04:35:37.434Z,99592.66
2023-03-16T04:38:04.517Z,99623.13
2023-03-16T04:40:40.139Z,99623.28
2023-03-16T04:43:14.785Z,99617.34
2023-03-16T04:45:42.934Z,99619.38
2023-03-16T04:48:10.670Z,99617.97
2023-03-16T04:50:38.565Z,99624.13
2023-03-16T04:53:05.849Z,99624.16
2023-03-16T04:55:33.353Z,99604.06
2023-03-16T04:58:01.632Z,99622.25
2023-03-16T05:00:33.960Z,99631.44
2023-03-16T05:03:14.319Z,99646.28
2023-03-16T05:05:42.659Z,99578.94
2023-03-16T05:08:12.324Z,99654.41
2023-03-16T05:10:42.203Z,99638.41
2023-03-16T05:13:09.252Z,99633.44
2023-03-16T05:15:37.157Z,99652.19
2023-03-16T05:18:27.776Z,99654.22
2023-03-16T05:20:56.349Z,99575.66
2023-03-16T05:23:27.559Z,99624.81
2023-03-16T05:26:01.213Z,99663.44
2023-03-16T05:28:32.103Z,99658.09
2023-03-16T05:31:06.844Z,99672.31
2023-03-16T05:33:41.929Z,99664.31
2023-03-16T05:36:13.347Z,99664.50
2023-03-16T05:38:42.857Z,99666.28
2023-03-16T05:41:15.065Z,99656.31
2023-03-16T05:43:53.413Z,99640.59
2023-03-16T05:46:23.855Z,99640.03
2023-03-16T05:48:52.142Z,99647.44
2023-03-16T05:51:20.919Z,99640.91
2023-03-16T05:53:49.425Z,99639.22
2023-03-16T05:56:28.826Z,99640.31
2023-03-16T05:58:57.200Z,99586.34
2023-03-16T06:01:26.016Z,99663.91
2023-03-16T06:03:53.271Z,99612.25
2023-03-16T06:06:23.938Z,99658.19
2023-03-16T06:08:58.089Z,99663.34
2023-03-16T06:11:26.891Z,99671.72
2023-03-16T06:13:54.086Z,99641.69
2023-03-16T06:16:21.373Z,99650.72
2023-03-16T06:18:48.407Z,99658.63
2023-03-16T06:21:15.571Z,99563.50
2023-03-16T06:23:43.097Z,99660.53
2023-03-16T06:26:11.202Z,99644.78
2023-03-16T06:28:41.798Z,99651.41
2023-03-16T06:31:09.074Z,99680.56
2023-03-16T06:33:37.045Z,99680.84
2023-03-16T06:36:04.250Z,99668.59
2023-03-16T06:38:38.805Z,99686.91
2023-03-16T06:41:24.537Z,99692.16
2023-03-16T06:43:51.843Z,99673.78
2023-03-16T06:46:18.919Z,99688.72
2023-03-16T06:48:47.534Z,99696.59
2023-03-16T06:51:16.837Z,99681.72
2023-03-16T06:53:45.609Z,99699.22
2023-03-16T06:56:13.715Z,99691.78
2023-03-16T06:58:43.172Z,99677.09
2023-03-16T07:01:10.338Z,99652.09
2023-03-16T07:03:37.348Z,99672.00
2023-03-16T07:06:16.688Z,99691.00
2023-03-16T07:08:43.889Z,99691.94
2023-03-16T07:11:11.613Z,99686.59
2023-03-16T07:13:38.785Z,99661.53
2023-03-16T07:16:06.833Z,99684.25
2023-03-16T07:18:34.050Z,99680.06
2023-03-16T07:21:02.061Z,99690.41
2023-03-16T07:23:29.408Z,99687.84
2023-03-16T07:26:03.787Z,99686.16
2023-03-16T07:28:32.770Z,99677.09
2023-03-16T07:31:04.175Z,99683.63
2023-03-16T07:33:37.546Z,99692.00
2023-03-16T07:36:09.388Z,99664.28
2023-03-16T07:38:41.818Z,99684.66
2023-03-16T07:41:10.221Z,99635.19
2023-03-16T07:43:38.032Z,99679.38
2023-03-16T07:46:05.639Z,99691.56
2023-03-16T07:48:32.806Z,99669.19
2023-03-16T07:51:02.745Z,99680.97
2023-03-16T07:53:32.136Z,99679.53
2023-03-16T07:56:14.541Z,99660.63
2023-03-16T07:58:44.849Z,99676.69
2023-03-16T08:01:12.028Z,99668.78
2023-03-16T08:03:39.252Z,99675.69
2023-03-16T08:06:07.213Z,99676.06
2023-03-16T08:08:35.407Z,99663.88
2023-03-16T08:11:02.603Z,99648.97
2023-03-16T08:13:44.123Z,99646.56
2023-03-16T08:16:13.609Z,99626.31
2023-03-16T08:18:43.989Z,99676.88
2023-03-16T08:21:11.297Z,99673.66
2023-03-16T08:23:38.303Z,99684.09
2023-03-16T08:26:09.840Z,99689.09
2023-03-16T08:28:38.636Z,99681.91
2023-03-16T08:31:10.766Z,99665.31
2023-03-16T08:33:58.223Z,99685.66
2023-03-16T08:36:29.096Z,99678.94
2023-03-16T08:39:06.456Z,99691.19
2023-03-16T08:41:41.055Z,99688.13
2023-03-16T08:44:17.643Z,99678.75
2023-03-16T08:46:45.012Z,99691.03
2023-03-16T08:49:14.488Z,99690.38
2023-03-16T08:51:44.810Z,99680.19
2023-03-16T08:54:12.436Z,99683.75
2023-03-16T08:56:39.488Z,99679.38
2023-03-16T08:59:07.809Z,99674.03
2023-03-16T09:01:35.977Z,99622.06
2023-03-16T09:04:03.576Z,99685.03
2023-03-16T09:06:30.796Z,99624.81
2023-03-16T09:08:57.852Z,99690.50
2023-03-16T09:11:28.906Z,99678.91
2023-03-16T09:13:55.914Z,99672.63
2023-03-16T09:16:25.897Z,99651.47
2023-03-16T09:18:53.731Z,99683.19
2023-03-16T09:21:20.769Z,99692.66
2023-03-16T09:23:47.805Z,99684.81
2023-03-16T09:26:15.373Z,99687.59
2023-03-16T09:28:42.947Z,99686.84
2023-03-16T09:31:19.095Z,99682.00
2023-03-16T09:33:47.226Z,99676.00
2023-03-16T09:36:15.501Z,99691.00
2023-03-16T09:38:43.963Z,99672.28
2023-03-16T09:41:29.684Z,99694.81
2023-03-16T09:44:18.152Z,99695.53
2023-03-16T09:46:48.823Z,99684.09
2023-03-16T09:49:20.013Z,99687.81
2023-03-16T09:52:25.301Z,99695.94
2023-03-16T09:54:52.675Z,99682.13
2023-03-16T09:57:46.644Z,99676.84
2023-03-16T10:00:26.248Z,99678.63
2023-03-16T10:03:14.885Z,99677.88
2023-03-16T10:05:42.424Z,99667.53
2023-03-16T10:08:24.763Z,99674.28
2023-03-16T10:11:04.040Z,99686.88
2023-03-16T10:13:55.265Z,99684.59
2023-03-16T10:16:38.448Z,99671.63
2023-03-16T10:19:14.733Z,99692.72
2023-03-16T10:21:43.514Z,99679.81
2023-03-16T10:24:25.451Z,99677.63
2023-03-16T10:27:00.513Z,99690.66
2023-03-16T10:29:36.564Z,99696.69
2023-03-16T10:32:14.352Z,99660.78
2023-03-16T10:34:45.612Z,99690.28
2023-03-16T10:37:14.341Z,99694.56
2023-03-16T10:39:43.239Z,99688.59
2023-03-16T10:42:21.504Z,99688.41
2023-03-16T10:44:48.938Z,99695.09
2023-03-16T10:47:24.320Z,99691.53
2023-03-16T10:49:51.783Z,99697.75
2023-03-16T10:52:24.007Z,99697.72
2023-03-16T10:55:01.614Z,99695.72
2023-03-16T10:57:29.984Z,99699.25
2023-03-16T11:00:10.715Z,99679.38
2023-03-16T11:02:37.790Z,99690.47
2023-03-16T11:05:16.166Z,99699.84
2023-03-16T11:08:01.969Z,99690.38
2023-03-16T11:10:33.186Z,99691.09
2023-03-16T11:13:10.249Z,99679.16
2023-03-16T11:15:43.088Z,99702.03
2023-03-16T11:18:22.553Z,99683.06
2023-03-16T11:20:50.052Z,99701.38
2023-03-16T11:23:21.441Z,99668.13
2023-03-16T11:25:53.521Z,99682.25
2023-03-16T11:28:30.262Z,99678.13
2023-03-16T11:31:40.603Z,99699.22
2023-03-16T11:34:16.135Z,99697.47
2023-03-16T11:36:56.727Z,99694.94
2023-03-16T11:39:23.772Z,99703.31
2023-03-16T11:42:14.351Z,99706.34
2023-03-16T11:45:10.264Z,99716.22
2023-03-16T11:47:46.605Z,99716.75
2023-03-16T11:50:35.818Z,99724.19
2023-03-16T11:53:28.779Z,99723.47
2023-03-16T11:56:14.001Z,99729.63
2023-03-16T11:59:04.575Z,99721.91
2023-03-16T12:02:01.037Z,99721.00
2023-03-16T12:04:38.151Z,99727.13
2023-03-16T12:07:41.169Z,99726.28
2023-03-16T12:10:20.354Z,99736.63
2023-03-16T12:13:11.737Z,99721.19
2023-03-16T12:15:53.715Z,99729.78
2023-03-16T12:18:23.730Z,99742.28
2023-03-16T12:20:56.507Z,99743.28
2023-03-16T12:23:37.804Z,99721.66
2023-03-16T12:26:05.072Z,99734.81
2023-03-16T12:28:33.643Z,99733.06
2023-03-16T12:31:18.981Z,99735.97
2023-03-16T12:33:57.946Z,99732.44
2023-03-16T12:36:56.996Z,99731.78
2023-03-16T12:39:23.941Z,99735.84
2023-03-16T12:42:30.223Z,99744.22
2023-03-16T12:45:17.910Z,99747.53
2023-03-16T12:47:44.789Z,99754.91
2023-03-16T12:50:18.905Z,99754.38
2023-03-16T12:52:49.544Z,99739.25
2023-03-16T12:55:25.200Z,99760.94
2023-03-16T12:58:01.044Z,99762.13
2023-03-16T13:00:40.913Z,99739.50
2023-03-16T13:03:15.716Z,99764.06
2023-03-16T13:05:53.236Z,99768.50
2023-03-16T13:08:22.978Z,99751.97
2023-03-16T13:11:12.296Z,99742.72
2023-03-16T13:14:08.979Z,99766.50
2023-03-16T13:16:38.140Z,99762.94
2023-03-16T13:19:26.577Z,99765.78
2023-03-16T13:22:22.797Z,99754.03
2023-03-16T13:25:11.164Z,99760.56
2023-03-16T13:27:41.089Z,99766.25
2023-03-16T13:30:28.928Z,99766.00
2023-03-16T13:33:01.324Z,99755.53
2023-03-16T13:35:30.567Z,99732.47
2023-03-16T13:38:07.117Z,99755.03
2023-03-16T13:40:38.130Z,99747.56
2023-03-16T13:43:05.120Z,99746.44
2023-03-16T13:45:34.558Z,99756.78
2023-03-16T13:48:05.656Z,99739.63
2023-03-16T13:50:34.689Z,99736.22
2023-03-16T13:53:14.748Z,99748.59
2023-03-16T13:55:47.007Z,99728.03
2023-03-16T13:58:35.547Z,99740.53
2023-03-16T14:01:05.266Z,99750.13
2023-03-16T14:03:36.417Z,99752.75
2023-03-16T14:06:04.798Z,99758.88
2023-03-16T14:08:33.990Z,99731.66
2023-03-16T14:11:02.430Z,99741.00
2023-03-16T14:13:29.771Z,99759.31
2023-03-16T14:16:01.327Z,99758.19
2023-03-16T14:18:50.903Z,99737.84
2023-03-16T14:21:26.943Z,99750.25
2023-03-16T14:24:19.005Z,99723.00
2023-03-16T14:26:48.185Z,99754.09
2023-03-16T14:29:33.258Z,99746.38
2023-03-16T14:32:00.608Z,99751.41
2023-03-16T14:34:41.918Z,99759.03
2023-03-16T14:37:19.954Z,99756.41
2023-03-16T14:39:58.302Z,99744.09
2023-03-16T14:42:30.101Z,99769.16
2023-03-16T14:45:02.777Z,99765.88
2023-03-16T14:47:37.973Z,99773.53
2023-03-16T14:50:10.004Z,99778.81
2023-03-16T14:52:37.328Z,99767.50
2023-03-16T14:55:16.220Z,99781.38
2023-03-16T14:57:45.633Z,99766.34
2023-03-16T15:00:15.532Z,99781.22
2023-03-16T15:02:45.989Z,99787.81
2023-03-16T15:05:22.582Z,99780.25
2023-03-16T15:07:54.790Z,99802.03
2023-03-16T15:10:31.517Z,99797.91
2023-03-16T15:13:06.278Z,99780.84
2023-03-16T15:15:33.289Z,99804.13
2023-03-16T15:18:00.751Z,99810.03
2023-03-16T15:20:35.800Z,99807.47
2023-03-16T15:23:05.083Z,99793.31
2023-03-16T15:25:46.812Z,99801.25
2023-03-16T15:28:24.463Z,99821.13
2023-03-16T15:30:56.042Z,99807.13
2023-03-16T15:33:23.612Z,99824.53
2023-03-16T15:35:55.935Z,99825.25
2023-03-16T15:38:32.425Z,99812.38
2023-03-16T15:40:59.993Z,99825.34
2023-03-16T15:43:29.288Z,99838.25
2023-03-16T15:46:03.746Z,99824.53
2023-03-16T15:48:31.493Z,99765.78
2023-03-16T15:51:07.746Z,99837.63
2023-03-16T15:53:42.510Z,99815.75
2023-03-16T15:56:16.700Z,99835.06
2023-03-16T15:58:46.585Z,99828.75
2023-03-16T16:01:25.922Z,99841.75
2023-03-16T16:03:54.406Z,99837.00
2023-03-16T16:06:22.412Z,99841.59
2023-03-16T16:08:49.999Z,99861.69
2023-03-16T16:11:22.501Z,99849.72
2023-03-16T16:13:50.632Z,99841.69
2023-03-16T16:16:19.807Z,99859.78
2023-03-16T16:18:49.116Z,99886.56
2023-03-16T16:21:25.966Z,99859.59
2023-03-16T16:23:53.330Z,99897.94
2023-03-16T16:26:23.388Z,99905.63
2023-03-16T16:28:51.534Z,99902.19
2023-03-16T16:31:20.889Z,99906.41
2023-03-16T16:33:47.962Z,99915.72
2023-03-16T16:36:21.133Z,99879.06
2023-03-16T16:38:49.487Z,99898.81
2023-03-16T16:41:30.648Z,99898.53
2023-03-16T16:43:59.332Z,99921.16
2023-03-16T16:46:28.853Z,99927.28
2023-03-16T16:49:05.402Z,99927.13
2023-03-16T16:51:33.391Z,99920.69
2023-03-16T16:54:04.992Z,99941.47
2023-03-16T16:56:35.325Z,99937.84
2023-03-16T16:59:14.150Z,99939.72
2023-03-16T17:01:42.086Z,99931.84
2023-03-16T17:04:19.086Z,99920.31
2023-03-16T17:06:46.863Z,99947.44
2023-03-16T17:09:14.521Z,99927.47
2023-03-16T17:11:43.874Z,99947.56
2023-03-16T17:14:18.083Z,99941.56
2023-03-16T17:16:47.830Z,99936.16
2023-03-16T17:19:19.890Z,99937.19
2023-03-16T17:21:47.135Z,99944.78
2023-03-16T17:24:14.249Z,99936.63
2023-03-16T17:26:45.379Z,99950.53
2023-03-16T17:29:22.650Z,99947.97
2023-03-16T17:31:50.930Z,99945.09
2023-03-16T17:34:24.202Z,99945.91
2023-03-16T17:36:53.124Z,99932.78
2023-03-16T17:39:26.499Z,99946.84
2023-03-16T17:41:58.358Z,99953.06
2023-03-16T17:44:27.240Z,99955.63
2023-03-16T17:46:54.600Z,99957.66
2023-03-16T17:49:23.402Z,99946.16
2023-03-16T17:51:50.494Z,99970.50
2023-03-16T17:54:17.504Z,99964.34
2023-03-16T17:56:46.155Z,99954.50
2023-03-16T17:59:19.884Z,99956.06
2023-03-16T18:01:47.804Z,99952.13
2023-03-16T18:04:26.071Z,99968.22
2023-03-16T18:06:54.402Z,99964.69
2023-03-16T18:09:21.643Z,99971.47
2023-03-16T18:11:51.091Z,99961.66
2023-03-16T18:14:35.014Z,99980.94
2023-03-16T18:17:05.581Z,99950.13
2023-03-16T18:19:32.742Z,99977.81
2023-03-16T18:21:59.841Z,99920.78
2023-03-16T18:24:28.364Z,99985.59
2023-03-16T18:26:55.517Z,99988.09
2023-03-16T18:29:22.779Z,99996.72
2023-03-16T18:31:53.128Z,100001.06
2023-03-16T18:34:24.005Z,100000.13
2023-03-16T18:36:53.691Z,100003.50
2023-03-16T18:39:22.250Z,100005.03
2023-03-16T18:41:49.883Z,100004.75
2023-03-16T18:44:29.942Z,99996.94
2023-03-16T18:47:03.280Z,99999.72
2023-03-16T18:49:34.781Z,100012.69
2023-03-16T18:52:03.816Z,100019.56
2023-03-16T18:54:33.121Z,100022.91
2023-03-16T18:57:00.426Z,99994.97
2023-03-16T18:59:29.200Z,100004.66
2023-03-16T19:01:58.183Z,100027.00
2023-03-16T19:04:30.869Z,100021.88
2023-03-16T19:06:58.162Z,100025.06
2023-03-16T19:09:32.136Z,100022.34
2023-03-16T19:11:59.631Z,100013.94
2023-03-16T19:14:30.937Z,99965.66
2023-03-16T19:16:58.656Z,100031.50
2023-03-16T19:19:25.998Z,100040.09
2023-03-16T19:21:59.643Z,100037.53
2023-03-16T19:24:41.645Z,100039.38
2023-03-16T19:27:20.030Z,99870.44
2023-03-16T19:29:47.270Z,100039.84
2023-03-16T19:32:18.153Z,100044.22
2023-03-16T19:34:46.856Z,100051.09
2023-03-16T19:37:15.162Z,100049.34
2023-03-16T19:39:43.885Z,100064.88
2023-03-16T19:42:33.835Z,100045.50
2023-03-16T19:45:01.325Z,100065.41
2023-03-16T19:47:33.107Z,100060.72
2023-03-16T19:50:00.667Z,100063.53
2023-03-16T19:52:30.903Z,100056.53
2023-03-16T19:54:57.954Z,100059.78
2023-03-16T19:57:25.460Z,100085.94
2023-03-16T19:59:56.549Z,100081.63
2023-03-16T20:02:40.550Z,100085.94
2023-03-16T20:05:08.682Z,100083.38
2023-03-16T20:07:38.282Z,100050.88
2023-03-16T20:10:06.954Z,100062.88
2023-03-16T20:12:35.321Z,100075.19
2023-03-16T20:15:02.380Z,99996.97
2023-03-16T20:17:33.010Z,100084.06
2023-03-16T20:20:00.112Z,100091.75
2023-03-16T20:22:28.810Z,100080.53
2023-03-16T20:24:58.191Z,100082.09
2023-03-16T20:27:27.887Z,100067.19
2023-03-16T20:29:55.297Z,100088.03
2023-03-16T20:32:35.268Z,100083.03
2023-03-16T20:35:02.418Z,100080.03
2023-03-16T20:37:31.433Z,100092.34
2023-03-16T20:39:59.167Z,100060.09
2023-03-16T20:42:30.221Z,100085.47
2023-03-16T20:44:58.031Z,100095.72
2023-03-16T20:47:26.873Z,100085.09
2023-03-16T20:49:55.845Z,100099.09
2023-03-16T20:52:27.739Z,100104.00
2023-03-16T20:54:55.881Z,100055.97
2023-03-16T20:57:25.271Z,100098.34
2023-03-16T20:59:54.742Z,100114.03
2023-03-16T21:02:32.147Z,100102.91
2023-03-16T21:05:01.182Z,100118.28
2023-03-16T21:07:30.943Z,100124.31
2023-03-16T21:09:58.149Z,100109.41
2023-03-16T21:12:34.330Z,100106.66
2023-03-16T21:15:02.829Z,100133.50
2023-03-16T21:17:33.804Z,100137.44
2023-03-16T21:20:01.010Z,100127.38
2023-03-16T21:22:31.918Z,100134.78
2023-03-16T21:24:59.214Z,100138.31
2023-03-16T21:27:32.125Z,100130.63
2023-03-16T21:30:07.484Z,100148.72
2023-03-16T21:32:34.582Z,100092.31
2023-03-16T21:35:01.736Z,100149.41
2023-03-16T21:37:30.485Z,100153.72
2023-03-16T21:39:58.675Z,100145.78
2023-03-16T21:42:27.206Z,100156.91
2023-03-16T21:44:54.220Z,100147.16
2023-03-16T21:47:27.555Z,100149.16
2023-03-16T21:49:54.833Z,100142.66
2023-03-16T21:52:27.962Z,100152.44
2023-03-16T21:54:58.116Z,100152.38
2023-03-16T21:57:25.204Z,100154.06
2023-03-16T21:59:52.236Z,100150.53
2023-03-16T22:02:28.139Z,100162.78
2023-03-16T22:04:56.980Z,100161.09
2023-03-16T22:07:24.110Z,100168.72
2023-03-16T22:09:51.247Z,100163.59
2023-03-16T22:12:18.646Z,100160.06
2023-03-16T22:14:46.081Z,100162.63
2023-03-16T22:17:21.008Z,100151.84
2023-03-16T22:19:48.442Z,100169.94
2023-03-16T22:22:17.531Z,100174.38
2023-03-16T22:24:44.786Z,100155.06
2023-03-16T22:27:23.635Z,100179.00
2023-03-16T22:29:51.284Z,100189.41
2023-03-16T22:32:22.942Z,100180.59
2023-03-16T22:34:56.321Z,100179.69
2023-03-16T22:37:27.407Z,100173.19
2023-03-16T22:39:57.464Z,100124.97
2023-03-16T22:42:24.427Z,100184.53
2023-03-16T22:44:51.561Z,100196.41
2023-03-16T22:47:23.478Z,100189.34
2023-03-16T22:49:50.840Z,100193.75
2023-03-16T22:52:18.660Z,100173.50
2023-03-16T22:54:47.104Z,100132.75
2023-03-16T22:57:17.009Z,100196.88
2023-03-16T22:59:45.985Z,100179.25
2023-03-16T23:02:16.751Z,100183.75
2023-03-16T23:04:44.607Z,100139.72
2023-03-16T23:07:13.356Z,100204.72
2023-03-16T23:09:40.969Z,100192.31
2023-03-16T23:12:26.276Z,100210.97
2023-03-16T23:23:28.049Z,100204.72
2023-03-16T23:25:55.311Z,100202.50
2023-03-16T23:28:24.767Z,100220.78
2023-03-16T23:30:51.868Z,100223.34
2023-03-16T23:33:18.868Z,100219.16
2023-03-16T23:35:47.078Z,100204.69
2023-03-16T23:38:14.142Z,100215.97
2023-03-16T23:40:41.639Z,100229.28
2023-03-16T23:43:09.275Z,100231.84
2023-03-16T23:45:46.187Z,100233.75
2023-03-16T23:48:19.535Z,100237.13
2023-03-16T23:50:50.032Z,100238.72
2023-03-16T23:53:19.098Z,100232.47
2023-03-16T23:55:46.954Z,100251.88
2023-03-16T23:58:16.290Z,100170.47
